Time;durP1;ratioP1;P1;durP2;ratioP2;P2;SDS_P1;SDS_P2;PMS_P1;PMS_P2;Temp;Humidity;BMP_temperature;BMP_pressure;BME280_temperature;BME280_humidity;BME280_pressure;Samples;Min_cycle;Max_cycle;Signal;HPM_P1;HPM_P2
2022/03/27 00:01:13;;;;;;;23.13;13.43;;;;;;;;;;5012206;28;20206;-76
2022/03/27 00:03:40;;;;;;;22.03;13.43;;;;;;;;;;5012754;28;20225;-75
2022/03/27 00:06:07;;;;;;;19.27;13.60;;;;;;;;;;5011850;28;20211;-75
2022/03/27 00:08:37;;;;;;;19.50;12.63;;;;;;;;;;5011634;28;20290;-76
2022/03/27 00:13:51;;;;;;;21.00;13.20;;;;;;;;;;5012215;28;20278;-76
2022/03/27 00:16:18;;;;;;;20.70;13.10;;;;;;;;;;5012363;28;20285;-76
2022/03/27 00:18:45;;;;;;;22.40;12.93;;;;;;;;;;5012175;28;20202;-75
2022/03/27 00:21:13;;;;;;;19.57;13.30;;;;;;;;;;5011729;28;20199;-75
2022/03/27 00:23:40;;;;;;;23.40;13.57;;;;;;;;;;5012508;28;20233;-76
2022/03/27 00:26:09;;;;;;;23.20;13.80;;;;;;;;;;5012072;28;20229;-76
2022/03/27 00:28:39;;;;;;;20.93;14.23;;;;;;;;;;5012406;28;20210;-76
2022/03/27 00:31:07;;;;;;;22.93;13.53;;;;;;;;;;5011328;28;20199;-76
2022/03/27 00:33:42;;;;;;;21.17;13.77;;;;;;;;;;5011655;28;20199;-76
2022/03/27 00:36:13;;;;;;;22.80;13.47;;;;;;;;;;5012063;28;20202;-75
2022/03/27 00:38:40;;;;;;;22.00;14.20;;;;;;;;;;5011906;28;20209;-76
2022/03/27 00:41:09;;;;;;;21.13;14.40;;;;;;;;;;5011623;28;20281;-74
2022/03/27 00:43:36;;;;;;;18.07;12.60;;;;;;;;;;5011686;28;20225;-76
2022/03/27 00:46:03;;;;;;;22.27;13.83;;;;;;;;;;5011093;28;20265;-76
2022/03/27 00:48:31;;;;;;;20.53;13.87;;;;;;;;;;5012166;28;20206;-76
2022/03/27 00:50:58;;;;;;;20.47;13.73;;;;;;;;;;5012045;28;20206;-76
2022/03/27 00:53:26;;;;;;;18.83;12.63;;;;;;;;;;5007469;28;20225;-76
2022/03/27 00:55:53;;;;;;;19.63;14.00;;;;;;;;;;5012367;28;20245;-76
2022/03/27 00:58:22;;;;;;;21.93;12.90;;;;;;;;;;5011531;28;20198;-75
2022/03/27 01:00:50;;;;;;;22.17;13.57;;;;;;;;;;5011332;28;20248;-75
2022/03/27 01:03:20;;;;;;;20.97;13.43;;;;;;;;;;5005097;28;20248;-76
2022/03/27 01:05:48;;;;;;;21.37;12.30;;;;;;;;;;5005482;28;20298;-76
2022/03/27 01:08:15;;;;;;;21.90;13.70;;;;;;;;;;5005522;28;20210;-76
2022/03/27 01:10:42;;;;;;;21.27;13.63;;;;;;;;;;5004965;28;20206;-75
2022/03/27 01:13:11;;;;;;;19.67;12.83;;;;;;;;;;5010888;28;20230;-75
2022/03/27 01:15:41;;;;;;;20.67;12.97;;;;;;;;;;5010307;28;20290;-75
2022/03/27 01:18:09;;;;;;;21.97;13.47;;;;;;;;;;5011662;28;20233;-75
2022/03/27 01:20:40;;;;;;;17.73;12.73;;;;;;;;;;5004192;28;20198;-75
2022/03/27 01:23:10;;;;;;;23.40;13.43;;;;;;;;;;5005325;28;20250;-76
2022/03/27 01:25:41;;;;;;;21.87;12.87;;;;;;;;;;5011339;28;20290;-76
2022/03/27 01:28:09;;;;;;;18.50;13.40;;;;;;;;;;5011427;28;20207;-76
2022/03/27 01:30:37;;;;;;;19.77;12.93;;;;;;;;;;5011220;28;20207;-76
2022/03/27 01:33:05;;;;;;;20.40;13.10;;;;;;;;;;5011197;28;20225;-76
2022/03/27 01:35:33;;;;;;;24.80;12.70;;;;;;;;;;5005808;28;20206;-75
2022/03/27 01:38:01;;;;;;;23.67;13.03;;;;;;;;;;5011048;28;20225;-75
2022/03/27 01:40:28;;;;;;;22.63;13.40;;;;;;;;;;5010576;28;20258;-75
2022/03/27 01:42:56;;;;;;;24.83;14.07;;;;;;;;;;5011262;28;20258;-76
2022/03/27 01:45:23;;;;;;;23.83;13.60;;;;;;;;;;5010106;28;20198;-75
2022/03/27 01:47:51;;;;;;;21.07;14.20;;;;;;;;;;5011164;28;20204;-76
2022/03/27 01:50:18;;;;;;;19.73;14.00;;;;;;;;;;5010568;28;20206;-75
2022/03/27 01:52:46;;;;;;;21.27;12.97;;;;;;;;;;5011104;28;20218;-75
2022/03/27 01:55:16;;;;;;;20.27;13.57;;;;;;;;;;5010913;28;20237;-76
2022/03/27 01:57:44;;;;;;;19.07;13.30;;;;;;;;;;5010978;28;20207;-75
2022/03/27 02:00:13;;;;;;;19.57;13.43;;;;;;;;;;5010503;28;20202;-75
2022/03/27 02:02:41;;;;;;;20.83;12.53;;;;;;;;;;5011481;28;20226;-75
2022/03/27 02:05:08;;;;;;;20.27;12.83;;;;;;;;;;5012537;28;20198;-75
2022/03/27 02:07:42;;;;;;;21.03;12.97;;;;;;;;;;5009011;28;20203;-75
2022/03/27 02:10:09;;;;;;;19.73;13.43;;;;;;;;;;5010228;28;20234;-75
2022/03/27 02:12:38;;;;;;;19.00;13.40;;;;;;;;;;5004681;28;20258;-75
2022/03/27 02:15:06;;;;;;;21.40;13.00;;;;;;;;;;5011037;28;20213;-75
2022/03/27 02:17:33;;;;;;;23.17;13.70;;;;;;;;;;5004555;28;20207;-75
2022/03/27 02:20:00;;;;;;;19.93;12.93;;;;;;;;;;5010406;28;20242;-75
2022/03/27 02:22:27;;;;;;;20.83;13.07;;;;;;;;;;5038938;22;20233;-75
2022/03/27 02:24:54;;;;;;;17.63;12.90;;;;;;;;;;5029965;28;20218;-77
2022/03/27 02:27:22;;;;;;;19.63;12.03;;;;;;;;;;5030571;28;20202;-77
2022/03/27 02:29:50;;;;;;;19.07;12.33;;;;;;;;;;5028193;28;20206;-77
2022/03/27 02:32:17;;;;;;;18.13;12.27;;;;;;;;;;5029497;28;20308;-77
2022/03/27 02:34:44;;;;;;;22.33;13.10;;;;;;;;;;5017425;28;20202;-76
2022/03/27 02:37:13;;;;;;;18.57;12.50;;;;;;;;;;5014712;28;20285;-75
2022/03/27 02:39:40;;;;;;;17.37;12.30;;;;;;;;;;5022600;28;20232;-77
2022/03/27 02:42:07;;;;;;;19.60;12.93;;;;;;;;;;5010157;28;20202;-77
2022/03/27 02:44:34;;;;;;;21.87;13.77;;;;;;;;;;5015836;28;20277;-77
2022/03/27 02:47:03;;;;;;;18.57;13.00;;;;;;;;;;5016375;28;20328;-76
2022/03/27 02:49:31;;;;;;;16.47;12.13;;;;;;;;;;5008021;28;20214;-77
2022/03/27 02:51:58;;;;;;;22.07;13.23;;;;;;;;;;5013685;28;20206;-77
2022/03/27 02:54:25;;;;;;;16.77;12.07;;;;;;;;;;5010644;28;20199;-76
2022/03/27 02:56:52;;;;;;;20.10;12.90;;;;;;;;;;4996480;28;20203;-76
2022/03/27 02:59:22;;;;;;;20.77;12.70;;;;;;;;;;4995575;28;20298;-76
2022/03/27 03:01:49;;;;;;;19.80;12.37;;;;;;;;;;5000918;28;20202;-75
2022/03/27 03:04:18;;;;;;;20.83;12.83;;;;;;;;;;5009817;28;20230;-77
2022/03/27 03:06:45;;;;;;;25.73;13.60;;;;;;;;;;5001033;28;20203;-76
2022/03/27 03:09:12;;;;;;;20.97;13.03;;;;;;;;;;5015097;28;20209;-77
2022/03/27 03:11:39;;;;;;;21.47;12.23;;;;;;;;;;5005411;28;20278;-76
2022/03/27 03:14:07;;;;;;;22.13;12.43;;;;;;;;;;4994343;28;20230;-76
2022/03/27 03:16:34;;;;;;;19.53;13.47;;;;;;;;;;5019761;28;20201;-75
2022/03/27 03:19:01;;;;;;;23.87;13.13;;;;;;;;;;5013185;28;20209;-77
2022/03/27 03:21:30;;;;;;;19.83;13.20;;;;;;;;;;4999831;28;20223;-77
2022/03/27 03:23:57;;;;;;;19.47;12.27;;;;;;;;;;5013975;28;20226;-77
2022/03/27 03:26:25;;;;;;;20.17;12.17;;;;;;;;;;5016353;28;20665;-77
2022/03/27 03:28:52;;;;;;;18.00;12.27;;;;;;;;;;5012494;28;20212;-77
2022/03/27 03:31:19;;;;;;;21.37;12.50;;;;;;;;;;5015090;28;20213;-76
2022/03/27 03:33:47;;;;;;;21.57;12.90;;;;;;;;;;5016647;28;20242;-76
2022/03/27 03:36:15;;;;;;;19.43;12.37;;;;;;;;;;5013793;28;20218;-77
2022/03/27 03:38:44;;;;;;;19.43;12.83;;;;;;;;;;5010257;28;20198;-76
2022/03/27 03:41:11;;;;;;;16.50;11.50;;;;;;;;;;5004913;28;20202;-77
2022/03/27 03:43:39;;;;;;;19.13;12.47;;;;;;;;;;5012161;28;20230;-77
2022/03/27 03:46:06;;;;;;;22.40;13.30;;;;;;;;;;5008063;28;20282;-77
2022/03/27 03:48:33;;;;;;;21.83;13.17;;;;;;;;;;4998012;28;20297;-77
2022/03/27 03:51:01;;;;;;;19.33;13.70;;;;;;;;;;5001557;28;20230;-77
2022/03/27 03:53:28;;;;;;;18.47;12.20;;;;;;;;;;5017570;28;20226;-77
2022/03/27 03:55:57;;;;;;;24.60;13.50;;;;;;;;;;5018794;28;20592;-77
2022/03/27 03:58:24;;;;;;;20.33;12.33;;;;;;;;;;5015815;28;20285;-77
2022/03/27 04:00:51;;;;;;;18.20;12.30;;;;;;;;;;5002561;28;20423;-77
2022/03/27 04:03:19;;;;;;;22.03;13.30;;;;;;;;;;5003386;28;20230;-77
2022/03/27 04:05:46;;;;;;;18.97;12.33;;;;;;;;;;5000491;28;20293;-76
2022/03/27 04:08:14;;;;;;;17.80;12.13;;;;;;;;;;5019238;28;20201;-74
2022/03/27 04:10:42;;;;;;;19.37;13.00;;;;;;;;;;5011571;28;20306;-77
2022/03/27 04:13:11;;;;;;;19.57;12.57;;;;;;;;;;4994440;28;20231;-75
2022/03/27 04:15:38;;;;;;;21.50;12.13;;;;;;;;;;5002158;28;20218;-77
2022/03/27 04:18:06;;;;;;;21.37;12.73;;;;;;;;;;5012675;28;20589;-76
2022/03/27 04:20:34;;;;;;;23.87;12.90;;;;;;;;;;5002485;28;20234;-77
2022/03/27 04:23:02;;;;;;;19.60;12.20;;;;;;;;;;5008345;28;20684;-77
2022/03/27 04:25:29;;;;;;;20.20;12.40;;;;;;;;;;5012003;28;20310;-78
2022/03/27 04:27:59;;;;;;;21.13;12.83;;;;;;;;;;5000241;28;20266;-77
2022/03/27 04:30:28;;;;;;;23.87;13.27;;;;;;;;;;5011491;28;20206;-76
2022/03/27 04:32:55;;;;;;;22.80;13.30;;;;;;;;;;5012034;28;20227;-77
2022/03/27 04:35:22;;;;;;;22.93;13.40;;;;;;;;;;5003494;28;20293;-75
2022/03/27 04:37:49;;;;;;;24.47;13.27;;;;;;;;;;5011545;28;20238;-77
2022/03/27 04:40:17;;;;;;;21.20;13.07;;;;;;;;;;5000435;28;20201;-76
2022/03/27 04:42:44;;;;;;;20.23;12.73;;;;;;;;;;4998913;28;20337;-77
2022/03/27 04:45:12;;;;;;;20.93;13.07;;;;;;;;;;5015164;28;20285;-75
2022/03/27 04:47:41;;;;;;;21.63;13.53;;;;;;;;;;5009098;28;20226;-77
2022/03/27 04:50:09;;;;;;;22.33;13.60;;;;;;;;;;5007617;28;20302;-74
2022/03/27 04:52:36;;;;;;;23.60;13.57;;;;;;;;;;5005201;28;20230;-76
2022/03/27 04:55:05;;;;;;;22.93;13.10;;;;;;;;;;5012070;28;20201;-77
2022/03/27 04:57:35;;;;;;;20.83;13.33;;;;;;;;;;5017459;28;20202;-77
2022/03/27 05:00:03;;;;;;;21.57;13.07;;;;;;;;;;5006814;28;20209;-76
2022/03/27 05:02:30;;;;;;;20.73;13.20;;;;;;;;;;5013205;28;20227;-77
2022/03/27 05:04:59;;;;;;;21.13;13.40;;;;;;;;;;5002085;28;20218;-77
2022/03/27 05:07:26;;;;;;;20.63;13.13;;;;;;;;;;5015191;28;20206;-77
2022/03/27 05:09:53;;;;;;;21.93;13.23;;;;;;;;;;5019878;28;20213;-75
2022/03/27 05:12:20;;;;;;;21.03;13.57;;;;;;;;;;5023903;28;20218;-78
2022/03/27 05:14:48;;;;;;;26.80;13.57;;;;;;;;;;5020953;28;20226;-77
2022/03/27 05:17:15;;;;;;;20.17;11.83;;;;;;;;;;5013951;28;20231;-78
2022/03/27 05:19:42;;;;;;;21.93;13.63;;;;;;;;;;5018605;28;20267;-79
2022/03/27 05:22:10;;;;;;;19.70;13.13;;;;;;;;;;5030455;28;20289;-79
2022/03/27 05:24:37;;;;;;;21.63;13.20;;;;;;;;;;5027538;28;20588;-78
2022/03/27 05:27:05;;;;;;;25.90;14.23;;;;;;;;;;5006857;28;20217;-77
2022/03/27 05:29:32;;;;;;;23.97;14.30;;;;;;;;;;4995849;28;20279;-76
2022/03/27 05:31:59;;;;;;;22.60;13.30;;;;;;;;;;4992069;28;20203;-77
2022/03/27 05:34:26;;;;;;;23.73;14.47;;;;;;;;;;5000686;28;20199;-75
2022/03/27 05:36:53;;;;;;;18.37;12.97;;;;;;;;;;5013361;28;20225;-79
2022/03/27 05:39:22;;;;;;;21.73;13.23;;;;;;;;;;4994605;28;20589;-77
2022/03/27 05:41:49;;;;;;;19.77;12.33;;;;;;;;;;4997947;28;20231;-75
2022/03/27 05:44:16;;;;;;;17.80;12.57;;;;;;;;;;4991855;28;20227;-77
2022/03/27 05:46:43;;;;;;;22.60;12.80;;;;;;;;;;5007377;28;20289;-77
2022/03/27 05:49:11;;;;;;;18.63;12.63;;;;;;;;;;5009569;28;20202;-77
2022/03/27 05:51:38;;;;;;;21.37;12.30;;;;;;;;;;5011062;28;20301;-77
2022/03/27 05:54:05;;;;;;;21.33;12.80;;;;;;;;;;5006660;28;20246;-76
2022/03/27 05:56:34;;;;;;;22.97;13.33;;;;;;;;;;5011797;28;20297;-77
2022/03/27 05:59:01;;;;;;;22.90;13.70;;;;;;;;;;5009398;28;20282;-77
2022/03/27 06:01:28;;;;;;;22.40;12.83;;;;;;;;;;5009830;28;20204;-75
2022/03/27 06:03:55;;;;;;;21.40;13.60;;;;;;;;;;5009371;28;20219;-76
2022/03/27 06:06:22;;;;;;;26.13;13.90;;;;;;;;;;5010789;28;20198;-78
2022/03/27 06:08:50;;;;;;;23.97;13.73;;;;;;;;;;5012163;28;20207;-77
2022/03/27 06:11:17;;;;;;;20.80;12.80;;;;;;;;;;5013814;28;20221;-77
2022/03/27 06:13:45;;;;;;;20.80;13.63;;;;;;;;;;5007350;28;20230;-77
2022/03/27 06:16:12;;;;;;;20.17;12.93;;;;;;;;;;5014653;28;20284;-77
2022/03/27 06:18:40;;;;;;;19.10;13.00;;;;;;;;;;5014077;28;20208;-77
2022/03/27 06:21:07;;;;;;;19.70;13.03;;;;;;;;;;5014116;28;20207;-77
2022/03/27 06:23:34;;;;;;;20.30;14.03;;;;;;;;;;5012576;28;20227;-75
2022/03/27 06:26:01;;;;;;;21.60;13.17;;;;;;;;;;5012218;28;20210;-77
2022/03/27 06:28:29;;;;;;;22.10;13.97;;;;;;;;;;5017300;28;20253;-80
2022/03/27 06:30:57;;;;;;;20.97;13.43;;;;;;;;;;5009160;28;20198;-77
2022/03/27 06:33:24;;;;;;;18.60;13.30;;;;;;;;;;5014239;28;20226;-78
2022/03/27 06:35:51;;;;;;;24.30;12.97;;;;;;;;;;5013440;28;20230;-76
2022/03/27 06:38:18;;;;;;;22.37;13.93;;;;;;;;;;5013935;28;20205;-77
2022/03/27 06:40:46;;;;;;;21.87;13.47;;;;;;;;;;5012447;28;20291;-77
2022/03/27 06:43:13;;;;;;;20.47;13.80;;;;;;;;;;5014007;28;20222;-75
2022/03/27 06:45:40;;;;;;;19.97;13.33;;;;;;;;;;5012453;28;20286;-77
2022/03/27 06:48:09;;;;;;;19.67;12.67;;;;;;;;;;5013721;28;20211;-77
2022/03/27 06:50:36;;;;;;;19.63;12.43;;;;;;;;;;5009452;28;20209;-77
2022/03/27 06:53:03;;;;;;;20.93;13.83;;;;;;;;;;5012602;28;20223;-76
2022/03/27 06:55:32;;;;;;;19.73;13.53;;;;;;;;;;5014034;28;20194;-77
2022/03/27 06:57:59;;;;;;;20.07;13.20;;;;;;;;;;5014196;28;20203;-77
2022/03/27 07:03:21;;;;;;;21.40;13.10;;;;;;;;;;4985049;28;20223;-77
2022/03/27 07:05:48;;;;;;;18.10;13.43;;;;;;;;;;5013724;28;20228;-77
2022/03/27 07:08:16;;;;;;;22.73;14.37;;;;;;;;;;5012374;28;20207;-77
2022/03/27 07:10:44;;;;;;;21.03;13.83;;;;;;;;;;5013601;28;20229;-77
2022/03/27 07:13:12;;;;;;;18.53;13.87;;;;;;;;;;5009751;28;20229;-77
2022/03/27 07:15:40;;;;;;;22.83;13.97;;;;;;;;;;5018055;28;20199;-77
2022/03/27 07:18:08;;;;;;;20.07;13.50;;;;;;;;;;5017706;28;20202;-76
2022/03/27 07:20:37;;;;;;;21.33;13.80;;;;;;;;;;5003027;28;20745;-77
2022/03/27 07:23:05;;;;;;;22.07;13.63;;;;;;;;;;4994440;28;20239;-78
2022/03/27 07:25:34;;;;;;;19.63;13.73;;;;;;;;;;5009024;28;20290;-77
2022/03/27 07:28:01;;;;;;;21.33;13.33;;;;;;;;;;5014278;28;20202;-77
2022/03/27 07:30:30;;;;;;;21.23;14.10;;;;;;;;;;5015035;28;20294;-76
2022/03/27 07:32:57;;;;;;;19.17;13.20;;;;;;;;;;5021001;28;20233;-76
2022/03/27 07:35:25;;;;;;;18.50;13.43;;;;;;;;;;5013984;28;20253;-76
2022/03/27 07:37:54;;;;;;;17.83;12.83;;;;;;;;;;5006889;28;20199;-75
2022/03/27 07:40:22;;;;;;;18.93;12.67;;;;;;;;;;5013611;28;20306;-75
2022/03/27 07:42:50;;;;;;;20.20;12.70;;;;;;;;;;5009781;28;20227;-76
2022/03/27 07:45:19;;;;;;;16.63;12.90;;;;;;;;;;5016102;28;20815;-77
2022/03/27 07:47:47;;;;;;;16.43;12.37;;;;;;;;;;5014024;28;20583;-81
2022/03/27 07:50:14;;;;;;;19.27;14.37;;;;;;;;;;5011998;28;20211;-77
2022/03/27 07:52:42;;;;;;;16.70;12.77;;;;;;;;;;5010156;28;20223;-78
2022/03/27 07:55:11;;;;;;;17.83;12.30;;;;;;;;;;5014054;28;20313;-77
2022/03/27 07:57:38;;;;;;;19.70;13.63;;;;;;;;;;5012288;28;20207;-78
2022/03/27 08:00:08;;;;;;;21.37;14.73;;;;;;;;;;5010403;28;20206;-76
2022/03/27 08:02:35;;;;;;;18.70;14.40;;;;;;;;;;5011871;28;20245;-77
2022/03/27 08:05:04;;;;;;;24.03;13.80;;;;;;;;;;5018403;28;20225;-77
2022/03/27 08:07:31;;;;;;;18.30;12.87;;;;;;;;;;5019528;28;20218;-77
2022/03/27 08:09:58;;;;;;;23.40;13.67;;;;;;;;;;5017087;28;20629;-79
2022/03/27 08:12:27;;;;;;;24.07;14.30;;;;;;;;;;5010920;28;20227;-77
2022/03/27 08:14:54;;;;;;;18.60;13.70;;;;;;;;;;5010821;28;20207;-78
2022/03/27 08:17:22;;;;;;;20.80;14.07;;;;;;;;;;5014201;28;20238;-75
2022/03/27 08:19:49;;;;;;;19.40;14.10;;;;;;;;;;5002906;28;20581;-79
2022/03/27 08:24:56;;;;;;;17.63;12.47;;;;;;;;;;4976624;28;20311;-76
2022/03/27 08:27:22;;;;;;;18.63;12.40;;;;;;;;;;4962231;28;20690;-76
2022/03/27 08:29:51;;;;;;;15.97;12.70;;;;;;;;;;4949239;28;20324;-76
2022/03/27 08:32:18;;;;;;;16.80;12.33;;;;;;;;;;4969884;28;20236;-76
2022/03/27 08:34:46;;;;;;;17.20;12.33;;;;;;;;;;4981416;28;20263;-76
2022/03/27 08:37:14;;;;;;;16.00;12.27;;;;;;;;;;4961003;28;20204;-76
2022/03/27 08:39:44;;;;;;;17.37;12.30;;;;;;;;;;5017208;28;20201;-76
2022/03/27 08:42:16;;;;;;;16.20;12.77;;;;;;;;;;4950713;28;20238;-76
2022/03/27 08:44:43;;;;;;;18.27;13.43;;;;;;;;;;4950864;28;20232;-76
2022/03/27 08:47:18;;;;;;;15.33;12.33;;;;;;;;;;4944867;29;20308;-76
2022/03/27 08:49:49;;;;;;;14.60;11.57;;;;;;;;;;4950653;29;20302;-76
2022/03/27 08:52:30;;;;;;;15.17;11.40;;;;;;;;;;4950887;29;20246;-76
2022/03/27 08:55:02;;;;;;;16.10;11.70;;;;;;;;;;4951211;29;20219;-77
2022/03/27 08:57:33;;;;;;;15.10;11.27;;;;;;;;;;4951051;29;20217;-76
2022/03/27 09:00:01;;;;;;;14.40;10.77;;;;;;;;;;4951122;29;20212;-76
2022/03/27 09:02:30;;;;;;;16.97;11.57;;;;;;;;;;4950760;29;20300;-75
2022/03/27 09:04:59;;;;;;;16.00;11.07;;;;;;;;;;4950824;29;20229;-76
2022/03/27 09:07:26;;;;;;;17.70;12.10;;;;;;;;;;4950811;28;20232;-77
2022/03/27 09:09:53;;;;;;;18.17;11.80;;;;;;;;;;4950470;28;20781;-75
2022/03/27 09:12:22;;;;;;;15.77;11.77;;;;;;;;;;4950949;28;20297;-77
2022/03/27 09:14:49;;;;;;;13.73;11.17;;;;;;;;;;4950485;28;20250;-77
2022/03/27 09:17:19;;;;;;;15.90;11.20;;;;;;;;;;4951220;29;20311;-77
2022/03/27 09:19:50;;;;;;;17.60;12.47;;;;;;;;;;4950746;29;20243;-76
2022/03/27 09:22:18;;;;;;;15.87;11.67;;;;;;;;;;4950759;28;20212;-76
2022/03/27 09:24:47;;;;;;;15.07;10.87;;;;;;;;;;4950051;29;20319;-76
2022/03/27 09:27:15;;;;;;;15.00;11.33;;;;;;;;;;4950540;28;20337;-76
2022/03/27 09:30:06;;;;;;;14.70;11.23;;;;;;;;;;4950466;28;20210;-76
2022/03/27 09:32:36;;;;;;;16.13;12.47;;;;;;;;;;4950590;28;20213;-76
2022/03/27 09:35:07;;;;;;;14.57;11.13;;;;;;;;;;4950642;28;20215;-76
2022/03/27 09:37:35;;;;;;;16.40;11.50;;;;;;;;;;4950563;28;20228;-76
2022/03/27 09:40:05;;;;;;;14.97;11.27;;;;;;;;;;4950258;28;20282;-75
2022/03/27 09:42:33;;;;;;;18.07;11.80;;;;;;;;;;4952895;29;20333;-77
2022/03/27 09:45:16;;;;;;;17.03;12.40;;;;;;;;;;4953997;29;20307;-77
2022/03/27 09:47:45;;;;;;;15.17;11.73;;;;;;;;;;4953823;29;20216;-77
2022/03/27 09:50:27;;;;;;;16.57;12.07;;;;;;;;;;4953603;29;20212;-77
2022/03/27 09:53:16;;;;;;;14.40;11.03;;;;;;;;;;4954260;28;20267;-77
2022/03/27 09:55:46;;;;;;;15.10;11.90;;;;;;;;;;4953873;29;20726;-77
2022/03/27 09:58:15;;;;;;;16.67;12.00;;;;;;;;;;4954132;28;20287;-77
2022/03/27 10:00:43;;;;;;;15.87;11.50;;;;;;;;;;4953283;28;20217;-77
2022/03/27 10:03:11;;;;;;;16.97;11.57;;;;;;;;;;4953683;28;20217;-75
2022/03/27 10:05:39;;;;;;;15.43;11.60;;;;;;;;;;4953298;28;20315;-77
2022/03/27 10:08:08;;;;;;;18.60;11.13;;;;;;;;;;4953420;28;20232;-76
2022/03/27 10:10:35;;;;;;;14.50;10.90;;;;;;;;;;4953097;28;20308;-77
2022/03/27 10:13:08;;;;;;;14.47;11.03;;;;;;;;;;4953224;29;20279;-75
2022/03/27 10:15:38;;;;;;;14.52;11.52;;;;;;;;;;4953486;28;20228;-77
2022/03/27 10:18:11;;;;;;;14.57;10.95;;;;;;;;;;4953358;29;20296;-76
2022/03/27 10:20:39;;;;;;;14.63;11.20;;;;;;;;;;4953534;28;20223;-76
2022/03/27 10:23:09;;;;;;;13.77;11.10;;;;;;;;;;4952276;29;20268;-76
2022/03/27 10:25:39;;;;;;;13.47;11.30;;;;;;;;;;4952679;28;20233;-76
2022/03/27 10:28:08;;;;;;;16.65;11.50;;;;;;;;;;4953456;28;20240;-76
2022/03/27 10:30:36;;;;;;;15.15;10.98;;;;;;;;;;4953047;28;20204;-76
2022/03/27 10:33:04;;;;;;;16.38;11.45;;;;;;;;;;4953335;28;20294;-76
2022/03/27 10:35:36;;;;;;;14.90;11.57;;;;;;;;;;4952675;29;20242;-75
2022/03/27 10:38:09;;;;;;;16.35;11.82;;;;;;;;;;4953184;29;20247;-77
2022/03/27 10:40:42;;;;;;;17.77;12.98;;;;;;;;;;4952793;29;20217;-76
2022/03/27 10:43:14;;;;;;;16.52;11.50;;;;;;;;;;4952986;29;20255;-76
2022/03/27 10:45:41;;;;;;;17.50;12.73;;;;;;;;;;4953048;28;20233;-76
2022/03/27 10:48:15;;;;;;;17.58;12.80;;;;;;;;;;4952849;29;20200;-76
2022/03/27 10:50:46;;;;;;;15.95;12.05;;;;;;;;;;4952510;29;20215;-76
2022/03/27 10:53:15;;;;;;;17.55;11.93;;;;;;;;;;4948122;28;20236;-76
2022/03/27 10:55:44;;;;;;;16.25;12.05;;;;;;;;;;4952865;28;20208;-76
2022/03/27 10:58:31;;;;;;;17.70;12.35;;;;;;;;;;4952856;28;20215;-75
2022/03/27 11:00:59;;;;;;;14.38;11.13;;;;;;;;;;4952736;28;20295;-75
2022/03/27 11:03:45;;;;;;;16.25;11.80;;;;;;;;;;4952440;28;20288;-76
2022/03/27 11:06:22;;;;;;;15.80;11.55;;;;;;;;;;4952308;29;20236;-76
2022/03/27 11:08:52;;;;;;;13.57;11.48;;;;;;;;;;4952235;29;20308;-76
2022/03/27 11:11:37;;;;;;;14.43;11.15;;;;;;;;;;4951973;29;20205;-75
2022/03/27 11:14:05;;;;;;;16.85;12.40;;;;;;;;;;4952469;29;20244;-76
2022/03/27 11:16:33;;;;;;;14.75;12.38;;;;;;;;;;4952595;29;20328;-76
2022/03/27 11:19:00;;;;;;;17.08;11.80;;;;;;;;;;4952434;28;20307;-77
2022/03/27 11:21:42;;;;;;;17.67;12.50;;;;;;;;;;4952243;28;20366;-76
2022/03/27 11:24:29;;;;;;;17.00;12.20;;;;;;;;;;4953146;28;20240;-76
2022/03/27 11:26:57;;;;;;;17.95;12.65;;;;;;;;;;4952321;29;20250;-75
2022/03/27 11:29:27;;;;;;;15.18;12.02;;;;;;;;;;4952234;28;20204;-76
2022/03/27 11:32:08;;;;;;;14.27;11.40;;;;;;;;;;4951877;29;20748;-75
2022/03/27 11:34:35;;;;;;;16.73;11.52;;;;;;;;;;4952143;28;20369;-76
2022/03/27 11:37:12;;;;;;;16.05;11.77;;;;;;;;;;4952173;28;20212;-76
2022/03/27 11:39:41;;;;;;;16.38;11.60;;;;;;;;;;4951987;28;20208;-76
2022/03/27 11:42:25;;;;;;;18.90;12.23;;;;;;;;;;4951850;28;20213;-76
2022/03/27 11:45:10;;;;;;;16.70;11.65;;;;;;;;;;4952128;28;20219;-76
2022/03/27 11:47:38;;;;;;;16.92;11.82;;;;;;;;;;4951900;28;20292;-75
2022/03/27 11:50:06;;;;;;;15.48;10.70;;;;;;;;;;4951703;28;20213;-75
2022/03/27 11:52:34;;;;;;;17.10;12.18;;;;;;;;;;4951998;28;20205;-77
2022/03/27 11:55:06;;;;;;;16.30;11.30;;;;;;;;;;4951816;29;20267;-76
2022/03/27 11:57:44;;;;;;;15.25;11.20;;;;;;;;;;4951980;28;20306;-76
2022/03/27 12:00:12;;;;;;;16.48;11.93;;;;;;;;;;4951452;28;20291;-75
2022/03/27 12:02:42;;;;;;;17.58;11.52;;;;;;;;;;4951846;28;20217;-76
2022/03/27 12:05:10;;;;;;;14.07;10.85;;;;;;;;;;4950833;28;20240;-76
2022/03/27 12:07:52;;;;;;;15.05;11.10;;;;;;;;;;4951409;29;20244;-76
2022/03/27 12:10:21;;;;;;;11.50;9.90;;;;;;;;;;4951427;29;20291;-75
2022/03/27 12:12:58;;;;;;;16.42;11.32;;;;;;;;;;4951521;28;20233;-75
2022/03/27 12:15:36;;;;;;;14.55;10.82;;;;;;;;;;4945202;28;20232;-76
2022/03/27 12:18:03;;;;;;;15.00;11.05;;;;;;;;;;4951533;29;20212;-76
2022/03/27 12:20:31;;;;;;;15.07;10.82;;;;;;;;;;4951301;29;20208;-75
2022/03/27 12:22:58;;;;;;;12.25;9.15;;;;;;;;;;4953582;28;20622;-76
2022/03/27 12:25:28;;;;;;;13.30;9.38;;;;;;;;;;4951069;29;20299;-76
2022/03/27 12:30:47;;;;;;;13.25;9.57;;;;;;;;;;4950965;29;20200;-75
2022/03/27 12:33:14;;;;;;;12.73;8.70;;;;;;;;;;4951346;29;20232;-76
2022/03/27 12:35:42;;;;;;;11.73;8.85;;;;;;;;;;4951359;28;20212;-77
2022/03/27 12:38:09;;;;;;;14.00;9.80;;;;;;;;;;4951504;29;20215;-75
2022/03/27 12:40:44;;;;;;;14.23;9.77;;;;;;;;;;4950783;29;20204;-75
2022/03/27 12:43:12;;;;;;;13.98;10.20;;;;;;;;;;4950733;29;20323;-76
2022/03/27 12:45:41;;;;;;;12.77;9.27;;;;;;;;;;4951324;28;20252;-76
2022/03/27 12:48:16;;;;;;;11.52;9.85;;;;;;;;;;4951314;28;20212;-76
2022/03/27 12:50:44;;;;;;;12.05;9.02;;;;;;;;;;4951482;28;20231;-76
2022/03/27 12:53:13;;;;;;;11.93;9.70;;;;;;;;;;4950824;29;20259;-76
2022/03/27 12:55:46;;;;;;;13.10;8.55;;;;;;;;;;4950566;28;20204;-76
2022/03/27 12:58:14;;;;;;;13.05;8.77;;;;;;;;;;4944658;29;20303;-75
2022/03/27 13:00:41;;;;;;;9.55;8.48;;;;;;;;;;4944371;28;20208;-76
2022/03/27 13:03:09;;;;;;;12.32;8.77;;;;;;;;;;4950694;28;20316;-76
2022/03/27 13:05:37;;;;;;;12.60;9.82;;;;;;;;;;4951017;28;20205;-75
2022/03/27 13:08:04;;;;;;;12.43;9.68;;;;;;;;;;4950672;29;20212;-75
2022/03/27 13:10:31;;;;;;;11.13;9.02;;;;;;;;;;4950722;28;20213;-75
2022/03/27 13:13:01;;;;;;;12.95;9.00;;;;;;;;;;4950734;29;20250;-76
2022/03/27 13:15:47;;;;;;;10.60;8.38;;;;;;;;;;4949669;29;20236;-76
2022/03/27 13:18:17;;;;;;;10.63;8.32;;;;;;;;;;4945343;29;20244;-76
2022/03/27 13:20:44;;;;;;;12.00;9.25;;;;;;;;;;4950034;29;20219;-77
2022/03/27 13:23:12;;;;;;;11.88;8.45;;;;;;;;;;4953700;28;20267;-76
2022/03/27 13:25:39;;;;;;;11.52;8.07;;;;;;;;;;4949836;29;20232;-76
2022/03/27 13:28:08;;;;;;;10.43;7.60;;;;;;;;;;4950852;29;20296;-75
2022/03/27 13:30:35;;;;;;;8.27;7.20;;;;;;;;;;4949595;29;20218;-76
2022/03/27 13:33:03;;;;;;;10.73;8.43;;;;;;;;;;4949758;28;20286;-75
2022/03/27 13:35:31;;;;;;;10.98;7.80;;;;;;;;;;4949266;28;20208;-77
2022/03/27 13:37:59;;;;;;;11.32;7.40;;;;;;;;;;4980517;28;20197;-79
2022/03/27 13:42:57;;;;;;;10.23;7.78;;;;;;;;;;4958268;28;20213;-75
2022/03/27 13:43:15;;;;;;;11.15;8.50;;;;;;;;;;4958632;28;20232;-75
2022/03/27 13:45:42;;;;;;;10.15;7.80;;;;;;;;;;4945886;28;20209;-75
2022/03/27 13:48:11;;;;;;;10.45;7.90;;;;;;;;;;4963692;28;20291;-75
2022/03/27 13:50:39;;;;;;;10.15;7.72;;;;;;;;;;4946142;29;20215;-76
2022/03/27 13:53:07;;;;;;;9.85;7.68;;;;;;;;;;4950212;28;20224;-76
2022/03/27 13:55:34;;;;;;;11.60;8.98;;;;;;;;;;4950410;29;20215;-77
2022/03/27 13:58:02;;;;;;;8.60;7.70;;;;;;;;;;4944989;29;20228;-77
2022/03/27 14:00:33;;;;;;;11.45;8.07;;;;;;;;;;4949152;29;20201;-77
2022/03/27 14:03:00;;;;;;;10.70;8.05;;;;;;;;;;4950363;28;20229;-78
2022/03/27 14:05:27;;;;;;;11.18;8.25;;;;;;;;;;4950079;29;20204;-77
2022/03/27 14:07:55;;;;;;;11.25;8.00;;;;;;;;;;4949760;28;20229;-76
2022/03/27 14:10:24;;;;;;;9.73;7.85;;;;;;;;;;4949627;28;20208;-76
2022/03/27 14:12:51;;;;;;;8.05;7.10;;;;;;;;;;4950302;29;20251;-77
2022/03/27 14:15:18;;;;;;;10.73;6.80;;;;;;;;;;4945232;29;20259;-76
2022/03/27 14:17:51;;;;;;;11.63;7.65;;;;;;;;;;4952343;29;20208;-80
2022/03/27 14:20:18;;;;;;;9.55;8.23;;;;;;;;;;4950068;28;20272;-77
2022/03/27 14:22:45;;;;;;;10.30;7.45;;;;;;;;;;4953637;29;20232;-78
2022/03/27 14:25:15;;;;;;;9.90;7.40;;;;;;;;;;5029110;23;20217;-79
2022/03/27 14:27:53;;;;;;;;;;;;;;;;;;;;;
2022/03/27 14:30:23;;;;;;;11.75;8.02;;;;;;;;;;5052993;28;20697;-81
2022/03/27 14:32:52;;;;;;;13.05;8.48;;;;;;;;;;5050515;28;20292;-76
2022/03/27 14:35:19;;;;;;;9.65;8.07;;;;;;;;;;5038102;28;20225;-77
2022/03/27 14:37:46;;;;;;;11.73;8.98;;;;;;;;;;5034313;28;20198;-76
2022/03/27 14:40:15;;;;;;;9.50;8.40;;;;;;;;;;5033903;28;20201;-76
2022/03/27 14:42:43;;;;;;;10.43;8.32;;;;;;;;;;5034922;28;20198;-76